Time;durP1;ratioP1;P1;durP2;ratioP2;P2;SDS_P1;SDS_P2;PMS_P1;PMS_P2;Temp;Humidity;BMP_temperature;BMP_pressure;BME280_temperature;BME280_humidity;BME280_pressure;Samples;Min_cycle;Max_cycle;Signal;HPM_P1;HPM_P2
2020/12/09 00:00:30;;;;;;;53.90;18.33;;;0.50;99.90;;;;;;4444235;28;658548;-62
2020/12/09 00:03:17;;;;;;;45.90;18.23;;;0.40;99.90;;;;;;4450005;28;657971;-60
2020/12/09 00:06:04;;;;;;;44.87;17.13;;;0.40;99.90;;;;;;4446891;28;658074;-60
2020/12/09 00:08:52;;;;;;;44.73;18.77;;;0.50;99.90;;;;;;4442622;28;657579;-61
2020/12/09 00:11:39;;;;;;;45.63;17.83;;;0.40;99.90;;;;;;4449810;28;658460;-61
2020/12/09 00:25:33;;;;;;;50.70;19.77;;;0.40;99.90;;;;;;4425786;28;658434;-61
2020/12/09 00:28:20;;;;;;;49.37;19.60;;;0.40;99.90;;;;;;4469635;28;658904;-61
2020/12/09 00:31:07;;;;;;;49.40;21.03;;;0.40;99.90;;;;;;4430344;28;659131;-61
2020/12/09 00:33:54;;;;;;;51.60;20.20;;;0.30;99.90;;;;;;4456191;28;658547;-60
2020/12/09 00:36:42;;;;;;;44.23;19.03;;;0.30;99.90;;;;;;4450404;28;657428;-61
2020/12/09 00:39:29;;;;;;;48.03;18.80;;;0.30;99.90;;;;;;4469420;28;657618;-60
2020/12/09 00:42:17;;;;;;;44.63;18.90;;;0.40;99.90;;;;;;4450517;28;657772;-60
2020/12/09 00:45:04;;;;;;;41.70;17.53;;;0.30;99.90;;;;;;4468702;28;657487;-60
2020/12/09 00:47:51;;;;;;;42.37;18.40;;;0.40;99.90;;;;;;4450120;28;657727;-61
2020/12/09 00:50:42;;;;;;;38.87;14.47;;;0.40;99.90;;;;;;4459782;28;658829;-61
2020/12/09 00:53:29;;;;;;;45.83;17.67;;;0.40;99.90;;;;;;4443098;28;657906;-61
2020/12/09 00:56:16;;;;;;;40.27;15.23;;;0.30;99.90;;;;;;4453288;28;657718;-62
2020/12/09 00:59:04;;;;;;;47.47;20.87;;;0.20;99.90;;;;;;4468667;28;659256;-60
2020/12/09 01:01:51;;;;;;;49.73;19.10;;;0.10;99.90;;;;;;4444312;28;657589;-62
2020/12/09 01:04:38;;;;;;;48.53;19.23;;;0.00;99.90;;;;;;4467005;28;658404;-60
2020/12/09 01:07:25;;;;;;;49.20;19.43;;;0.00;99.90;;;;;;4462659;28;657377;-60
2020/12/09 01:10:12;;;;;;;52.90;20.17;;;-0.20;99.90;;;;;;4446279;28;657710;-60
2020/12/09 01:12:59;;;;;;;48.83;19.67;;;-0.20;99.90;;;;;;4463623;28;659604;-61
2020/12/09 01:15:47;;;;;;;50.03;21.20;;;-0.30;99.90;;;;;;4448967;28;658511;-62
2020/12/09 01:18:34;;;;;;;52.20;21.67;;;-0.30;99.90;;;;;;4454465;28;659627;-61
2020/12/09 01:21:30;;;;;;;52.70;20.90;;;-0.40;99.90;;;;;;4456258;28;658517;-61
2020/12/09 01:24:17;;;;;;;52.33;20.40;;;-0.40;99.90;;;;;;4420722;28;659742;-60
2020/12/09 01:27:04;;;;;;;47.57;17.23;;;-0.40;99.90;;;;;;4459606;28;658911;-60
2020/12/09 01:29:51;;;;;;;47.40;19.97;;;-0.40;99.90;;;;;;4448023;28;658768;-61
2020/12/09 01:32:39;;;;;;;53.47;20.90;;;-0.50;99.90;;;;;;4460320;28;659266;-60
2020/12/09 01:35:26;;;;;;;58.30;22.13;;;-0.50;99.90;;;;;;4447644;28;658660;-60
2020/12/09 01:38:13;;;;;;;65.13;23.83;;;-0.50;99.90;;;;;;4466775;28;660936;-60
2020/12/09 01:41:01;;;;;;;45.57;18.23;;;-0.50;99.90;;;;;;4465477;28;659756;-62
2020/12/09 01:43:48;;;;;;;54.30;22.00;;;-0.50;99.90;;;;;;4471104;28;658609;-60
2020/12/09 01:46:36;;;;;;;51.73;20.53;;;-0.50;99.90;;;;;;4465051;28;658617;-61
2020/12/09 01:49:24;;;;;;;51.23;20.23;;;-0.50;99.90;;;;;;4467103;28;659793;-60
2020/12/09 01:52:11;;;;;;;54.53;20.97;;;-0.50;99.90;;;;;;4454058;28;658725;-62
2020/12/09 01:54:58;;;;;;;48.80;20.50;;;-0.40;99.90;;;;;;4470859;28;659004;-60
2020/12/09 01:57:45;;;;;;;41.30;18.13;;;-0.50;99.90;;;;;;4458961;28;659437;-61
2020/12/09 02:00:35;;;;;;;38.73;17.20;;;-0.50;99.90;;;;;;4443970;28;659552;-60
2020/12/09 02:03:22;;;;;;;40.80;16.73;;;-0.40;99.90;;;;;;4446756;28;659570;-60
2020/12/09 02:06:10;;;;;;;42.00;18.47;;;-0.50;99.90;;;;;;4470234;28;658664;-60
2020/12/09 02:08:57;;;;;;;40.27;16.77;;;-0.50;99.90;;;;;;4441910;28;659016;-59
2020/12/09 02:11:44;;;;;;;38.63;16.70;;;-0.60;99.90;;;;;;4462733;28;659297;-60
2020/12/09 02:14:31;;;;;;;43.97;18.33;;;-0.50;99.90;;;;;;4451139;28;658504;-60
2020/12/09 02:17:18;;;;;;;47.53;19.03;;;-0.50;99.90;;;;;;4463742;28;659525;-60
2020/12/09 02:20:08;;;;;;;41.63;16.00;;;-0.50;99.90;;;;;;4470367;28;659954;-60
2020/12/09 02:22:55;;;;;;;44.40;17.17;;;-0.50;99.90;;;;;;4447200;28;659292;-60
2020/12/09 02:25:42;;;;;;;46.37;18.30;;;-0.50;99.90;;;;;;4437684;28;659689;-60
2020/12/09 02:28:29;;;;;;;44.20;18.03;;;-0.60;99.90;;;;;;4463691;28;658648;-60
2020/12/09 02:31:16;;;;;;;35.77;15.10;;;-0.70;99.90;;;;;;4450336;28;659460;-60
2020/12/09 02:45:09;;;;;;;51.60;17.83;;;-0.70;99.90;;;;;;4408712;28;659535;-60
2020/12/09 02:47:56;;;;;;;45.80;17.93;;;-0.70;99.90;;;;;;4434304;28;658628;-61
2020/12/09 02:50:43;;;;;;;45.63;18.33;;;-0.60;99.90;;;;;;4457446;28;660073;-61
2020/12/09 02:53:30;;;;;;;39.05;16.25;;;-0.60;99.90;;;;;;4457877;28;660200;-61
2020/12/09 02:56:17;;;;;;;38.90;16.73;;;-0.50;99.90;;;;;;4447817;28;658834;-61
2020/12/09 02:59:04;;;;;;;32.33;12.47;;;-0.50;99.90;;;;;;4460376;28;659353;-60
2020/12/09 03:01:52;;;;;;;44.57;16.40;;;-0.40;99.90;;;;;;4444328;28;658631;-62
2020/12/09 03:04:39;;;;;;;39.77;16.30;;;-0.40;99.90;;;;;;4463715;28;659850;-61
2020/12/09 03:07:26;;;;;;;36.23;13.50;;;-0.40;99.90;;;;;;4450075;28;658643;-62
2020/12/09 03:10:13;;;;;;;43.65;17.05;;;-0.30;99.90;;;;;;4458114;28;658541;-61
2020/12/09 03:13:01;;;;;;;42.93;16.53;;;-0.30;99.90;;;;;;4454562;28;658395;-60
2020/12/09 03:15:48;;;;;;;43.73;18.23;;;-0.30;99.90;;;;;;4430559;28;660946;-60
2020/12/09 03:18:36;;;;;;;40.67;16.30;;;-0.40;99.90;;;;;;4451456;28;659232;-60
2020/12/09 03:21:23;;;;;;;38.93;15.03;;;-0.40;99.90;;;;;;4440926;28;659027;-61
2020/12/09 03:24:09;;;;;;;32.83;13.50;;;-0.40;99.90;;;;;;4451019;28;660129;-60
2020/12/09 03:26:56;;;;;;;50.40;15.23;;;-0.40;99.90;;;;;;4443299;28;658707;-62
2020/12/09 03:29:43;;;;;;;40.77;15.93;;;-0.30;99.90;;;;;;4463607;28;659027;-60
2020/12/09 03:32:30;;;;;;;35.73;13.97;;;-0.30;99.90;;;;;;4459275;28;659593;-60
2020/12/09 03:35:18;;;;;;;36.53;13.67;;;-0.30;99.90;;;;;;4448013;28;658833;-61
2020/12/09 03:38:05;;;;;;;37.57;15.70;;;-0.20;99.90;;;;;;4459100;28;659342;-61
2020/12/09 03:40:52;;;;;;;49.33;17.10;;;-0.30;99.90;;;;;;4432126;28;658575;-61
2020/12/09 03:43:39;;;;;;;37.87;15.23;;;-0.20;99.90;;;;;;4455981;28;659435;-61
2020/12/09 03:46:26;;;;;;;37.73;15.40;;;-0.30;99.90;;;;;;4448488;28;658577;-62
2020/12/09 03:49:13;;;;;;;45.50;16.60;;;-0.20;99.90;;;;;;4450506;28;659364;-61
2020/12/09 03:52:01;;;;;;;37.03;14.82;;;-0.30;99.90;;;;;;4444276;28;658292;-60
2020/12/09 03:54:48;;;;;;;44.33;16.30;;;-0.30;99.90;;;;;;4427322;28;660572;-60
2020/12/09 03:57:35;;;;;;;53.10;19.13;;;-0.30;99.90;;;;;;4443294;28;660073;-61
2020/12/09 04:00:22;;;;;;;43.60;18.27;;;-0.30;99.90;;;;;;4424606;28;658591;-61
2020/12/09 04:03:09;;;;;;;37.40;16.43;;;-0.40;99.90;;;;;;4443852;28;658799;-60
2020/12/09 04:05:56;;;;;;;47.20;17.92;;;-0.40;99.90;;;;;;4435644;28;659255;-62
2020/12/09 04:08:44;;;;;;;50.93;17.77;;;-0.40;99.90;;;;;;4447763;28;658537;-60
2020/12/09 04:11:31;;;;;;;44.63;17.27;;;-0.40;99.90;;;;;;4436427;28;658718;-61
2020/12/09 04:14:18;;;;;;;47.17;17.73;;;-0.40;99.90;;;;;;4439542;28;658712;-61
2020/12/09 04:17:05;;;;;;;42.15;17.33;;;-0.30;99.90;;;;;;4450186;28;658600;-61
2020/12/09 04:19:52;;;;;;;31.00;12.40;;;-0.30;99.90;;;;;;4424555;28;658744;-60
2020/12/09 04:22:39;;;;;;;46.00;17.53;;;-0.30;99.90;;;;;;4450104;28;660384;-60
2020/12/09 04:25:27;;;;;;;40.33;16.17;;;-0.30;99.90;;;;;;4423992;28;658585;-62
2020/12/09 04:28:14;;;;;;;43.33;16.00;;;-0.20;99.90;;;;;;4450047;28;660013;-61
2020/12/09 04:31:01;;;;;;;46.95;19.25;;;-0.30;99.90;;;;;;4422588;28;659240;-63
2020/12/09 04:33:53;;;;;;;42.93;17.40;;;-0.30;99.90;;;;;;4453976;28;658736;-60
2020/12/09 04:36:40;;;;;;;48.55;17.50;;;-0.30;99.90;;;;;;4426766;28;659726;-62
2020/12/09 04:39:27;;;;;;;46.10;17.73;;;-0.40;99.90;;;;;;4425481;28;658784;-61
2020/12/09 04:42:18;;;;;;;46.78;17.40;;;-0.30;99.90;;;;;;4449770;28;660924;-61
2020/12/09 04:45:05;;;;;;;45.77;16.90;;;-0.30;99.90;;;;;;4426482;28;658916;-60
2020/12/09 04:48:06;;;;;;;48.43;17.37;;;-0.30;99.90;;;;;;4440492;28;659583;-61
2020/12/09 04:51:13;;;;;;;45.70;16.57;;;-0.40;99.90;;;;;;4434317;28;658460;-60
2020/12/09 04:54:00;;;;;;;40.40;15.10;;;-0.40;99.90;;;;;;4436960;28;658927;-60
2020/12/09 04:56:53;;;;;;;34.50;13.90;;;-0.40;99.90;;;;;;4440109;28;658789;-61
2020/12/09 04:59:42;;;;;;;36.33;15.53;;;-0.40;99.90;;;;;;4436125;28;658637;-60
2020/12/09 05:02:42;;;;;;;40.97;16.43;;;-0.40;99.90;;;;;;4426575;28;659917;-60
2020/12/09 05:05:30;;;;;;;45.83;16.90;;;-0.50;99.90;;;;;;4435799;28;659566;-61
2020/12/09 05:08:21;;;;;;;41.80;17.90;;;-0.50;99.90;;;;;;4440086;28;658465;-61
2020/12/09 05:11:08;;;;;;;43.27;15.13;;;-0.40;99.90;;;;;;4438497;28;659964;-60
2020/12/09 05:13:55;;;;;;;33.63;13.20;;;-0.50;99.90;;;;;;4457231;28;659701;-60
2020/12/09 05:16:45;;;;;;;47.23;17.20;;;-0.60;99.90;;;;;;4439480;28;658868;-61
2020/12/09 05:19:32;;;;;;;38.47;13.83;;;-0.60;99.90;;;;;;4428676;28;659270;-61
2020/12/09 05:22:21;;;;;;;33.03;11.67;;;-0.60;99.90;;;;;;4455841;28;660135;-61
2020/12/09 05:25:08;;;;;;;40.17;15.53;;;-0.50;99.90;;;;;;4439198;28;659443;-60
2020/12/09 05:27:55;;;;;;;36.47;13.57;;;-0.50;99.90;;;;;;4449738;28;659584;-61
2020/12/09 05:30:44;;;;;;;38.53;14.13;;;-0.50;99.90;;;;;;4434279;28;659896;-62
2020/12/09 05:33:32;;;;;;;40.30;15.27;;;-0.50;99.90;;;;;;4459003;28;658542;-61
2020/12/09 05:36:19;;;;;;;36.37;14.80;;;-0.50;99.90;;;;;;4451319;28;661024;-60
2020/12/09 05:39:07;;;;;;;41.73;15.87;;;-0.60;99.90;;;;;;4432387;28;658428;-62
2020/12/09 05:41:54;;;;;;;28.97;10.57;;;-0.70;99.90;;;;;;4451270;28;660420;-61
2020/12/09 05:44:42;;;;;;;43.57;14.67;;;-0.70;99.90;;;;;;4455946;28;659617;-60
2020/12/09 05:47:29;;;;;;;40.53;14.93;;;-0.60;99.90;;;;;;4442372;28;660303;-61
2020/12/09 05:50:17;;;;;;;38.90;13.90;;;-0.60;99.90;;;;;;4460475;28;658526;-62
2020/12/09 05:53:15;;;;;;;31.40;13.03;;;-0.60;99.90;;;;;;4468022;28;659661;-60
2020/12/09 05:56:12;;;;;;;23.90;10.43;;;-0.70;99.90;;;;;;4446228;28;658338;-62
2020/12/09 05:58:59;;;;;;;41.10;14.40;;;-0.60;99.90;;;;;;4437501;28;658810;-60
2020/12/09 06:01:46;;;;;;;39.95;15.52;;;-0.70;99.90;;;;;;4452266;28;658852;-61
2020/12/09 06:04:57;;;;;;;47.23;17.03;;;-0.70;99.90;;;;;;4464880;28;658512;-61
2020/12/09 06:07:45;;;;;;;37.28;15.43;;;-0.80;99.90;;;;;;4374524;28;659611;-61
2020/12/09 06:10:33;;;;;;;43.15;13.40;;;-0.80;99.90;;;;;;4392957;28;658598;-60
2020/12/09 06:13:20;;;;;;;42.58;14.60;;;-0.80;99.90;;;;;;4407263;28;658797;-61
2020/12/09 06:16:08;;;;;;;38.20;14.90;;;-0.70;99.90;;;;;;4392831;28;658607;-61
2020/12/09 06:18:55;;;;;;;35.83;13.27;;;-0.70;99.90;;;;;;4411971;28;658431;-60
2020/12/09 06:21:42;;;;;;;29.80;11.53;;;-0.70;99.90;;;;;;4392530;28;659315;-61
2020/12/09 06:24:30;;;;;;;39.55;15.52;;;-0.70;99.90;;;;;;4411928;28;660664;-61
2020/12/09 06:27:17;;;;;;;40.30;15.37;;;-0.70;99.90;;;;;;4385610;28;658533;-60
2020/12/09 06:30:06;;;;;;;38.20;13.60;;;-0.70;99.90;;;;;;4404080;28;660753;-61
2020/12/09 06:32:53;;;;;;;44.53;16.30;;;-0.80;99.90;;;;;;4382724;28;658865;-61
2020/12/09 06:35:41;;;;;;;39.50;14.90;;;-0.80;99.90;;;;;;4411768;28;659120;-61
2020/12/09 06:38:28;;;;;;;34.13;12.63;;;-0.80;99.90;;;;;;4384874;28;659485;-60
2020/12/09 06:41:16;;;;;;;37.40;14.30;;;-0.80;99.90;;;;;;4411072;28;659587;-60
2020/12/09 06:44:05;;;;;;;36.37;13.00;;;-0.90;99.90;;;;;;4382196;28;658952;-60
2020/12/09 06:46:52;;;;;;;43.73;15.20;;;-0.90;99.90;;;;;;4391718;28;659357;-60
2020/12/09 06:49:41;;;;;;;33.03;12.33;;;-0.80;99.90;;;;;;4460467;28;659460;-60
2020/12/09 06:52:32;;;;;;;33.63;10.73;;;-0.90;99.90;;;;;;4447306;28;658858;-61
2020/12/09 06:55:20;;;;;;;29.57;9.90;;;-1.00;99.90;;;;;;4428420;28;659325;-60
2020/12/09 06:58:23;;;;;;;47.03;15.43;;;-1.00;99.90;;;;;;4435414;28;657495;-61
2020/12/09 07:01:10;;;;;;;37.17;15.03;;;-0.90;99.90;;;;;;4430844;28;660138;-60
2020/12/09 07:03:58;;;;;;;48.57;16.07;;;-0.90;99.90;;;;;;4439987;28;658474;-61
2020/12/09 07:06:45;;;;;;;52.27;15.90;;;-1.00;99.90;;;;;;4460666;28;659491;-60
2020/12/09 07:09:34;;;;;;;41.00;14.73;;;-0.90;99.90;;;;;;4445773;28;658953;-62
2020/12/09 07:12:21;;;;;;;39.47;15.90;;;-0.90;99.90;;;;;;4440767;28;659728;-62
2020/12/09 07:15:09;;;;;;;49.15;17.23;;;-0.90;99.90;;;;;;4463816;28;658725;-60
2020/12/09 07:17:56;;;;;;;39.50;14.97;;;-0.90;99.90;;;;;;4431830;28;658565;-62
2020/12/09 07:20:44;;;;;;;31.50;13.17;;;-0.90;99.90;;;;;;4463044;28;659656;-60
2020/12/09 07:23:31;;;;;;;44.27;15.50;;;-0.90;99.90;;;;;;4451193;28;658355;-60
2020/12/09 07:26:18;;;;;;;41.37;16.37;;;-0.90;99.90;;;;;;4432868;28;660248;-60
2020/12/09 07:29:05;;;;;;;35.93;13.93;;;-1.00;99.90;;;;;;4455734;28;659268;-60
2020/12/09 07:31:58;;;;;;;45.87;17.40;;;-1.00;99.90;;;;;;4432186;28;658565;-60
2020/12/09 07:34:53;;;;;;;46.13;14.77;;;-1.10;99.90;;;;;;4435142;28;658699;-60
2020/12/09 07:37:41;;;;;;;41.67;14.13;;;-1.00;99.90;;;;;;4430250;28;659131;-61
2020/12/09 07:40:30;;;;;;;49.73;17.93;;;-0.90;99.90;;;;;;4448254;28;659917;-61
2020/12/09 07:43:17;;;;;;;46.27;15.13;;;-0.90;99.90;;;;;;4431070;28;658924;-62
2020/12/09 07:46:04;;;;;;;35.80;14.07;;;-1.00;99.90;;;;;;4463267;28;658841;-60
2020/12/09 07:48:52;;;;;;;45.67;17.43;;;-1.00;99.90;;;;;;4437371;28;658676;-61
2020/12/09 07:51:40;;;;;;;53.33;18.47;;;-1.00;99.90;;;;;;4460099;28;660245;-61
2020/12/09 07:54:27;;;;;;;48.30;17.83;;;-1.10;99.90;;;;;;4440633;28;659192;-62
2020/12/09 07:57:14;;;;;;;46.23;15.60;;;-1.00;99.90;;;;;;4468539;28;660044;-62
2020/12/09 08:00:02;;;;;;;33.97;10.70;;;-1.00;99.90;;;;;;4456678;28;658893;-63
2020/12/09 08:02:49;;;;;;;49.10;13.70;;;-1.00;99.90;;;;;;4458517;28;660336;-60
2020/12/09 08:05:38;;;;;;;54.50;17.53;;;-0.90;99.90;;;;;;4462054;28;658998;-62
2020/12/09 08:08:27;;;;;;;48.77;17.63;;;-0.90;99.90;;;;;;4456387;28;658555;-61
2020/12/09 08:11:14;;;;;;;42.50;16.13;;;-1.00;99.90;;;;;;4439308;28;659499;-61
2020/12/09 08:14:01;;;;;;;46.17;18.33;;;-1.10;99.90;;;;;;4464328;27;658246;-62
2020/12/09 08:16:49;;;;;;;34.00;11.53;;;-1.20;99.90;;;;;;4444736;27;660274;-61
2020/12/09 08:19:35;;;;;;;46.63;15.27;;;-1.20;99.90;;;;;;4452793;28;658413;-61
2020/12/09 08:22:23;;;;;;;40.73;14.70;;;-1.10;99.90;;;;;;4441357;28;658666;-61
2020/12/09 08:25:10;;;;;;;38.23;13.90;;;-1.10;99.90;;;;;;4460729;28;658448;-60
2020/12/09 08:28:05;;;;;;;37.63;13.07;;;-1.10;99.90;;;;;;4439239;28;659379;-60
2020/12/09 08:30:52;;;;;;;38.23;14.63;;;-1.20;99.90;;;;;;4434679;27;658724;-60
2020/12/09 08:33:39;;;;;;;42.72;15.45;;;-1.20;99.90;;;;;;4462333;28;659200;-60
2020/12/09 08:36:27;;;;;;;37.65;14.27;;;-1.20;99.90;;;;;;4444209;28;658664;-62
2020/12/09 08:39:14;;;;;;;43.77;14.97;;;-1.20;99.90;;;;;;4455052;28;660403;-60
2020/12/09 08:42:01;;;;;;;43.20;15.90;;;-1.20;99.90;;;;;;4441965;28;658516;-62
2020/12/09 08:44:48;;;;;;;54.88;16.98;;;-1.30;99.90;;;;;;4458189;28;659189;-61
2020/12/09 08:47:35;;;;;;;47.50;13.63;;;-1.30;99.90;;;;;;4462985;28;659506;-61
2020/12/09 08:50:22;;;;;;;36.57;13.27;;;-1.20;99.90;;;;;;4440498;28;659024;-61
2020/12/09 08:53:09;;;;;;;53.13;16.93;;;-1.20;99.90;;;;;;4458375;28;660955;-62
2020/12/09 08:55:57;;;;;;;44.27;17.93;;;-1.10;99.90;;;;;;4437162;28;658666;-63
2020/12/09 08:58:44;;;;;;;51.30;14.97;;;-1.20;99.90;;;;;;4457693;28;660303;-61
2020/12/09 09:01:36;;;;;;;42.73;16.73;;;-1.10;99.90;;;;;;4436874;28;658686;-62
2020/12/09 09:04:27;;;;;;;54.73;19.50;;;-1.10;99.90;;;;;;4437526;28;659371;-60
2020/12/09 09:07:14;;;;;;;58.53;20.63;;;-1.10;99.90;;;;;;4434404;28;660184;-61
2020/12/09 09:10:01;;;;;;;34.03;13.93;;;-1.10;99.90;;;;;;4443907;28;658615;-62
2020/12/09 09:12:49;;;;;;;39.37;15.73;;;-1.10;99.90;;;;;;4451311;28;659045;-61
2020/12/09 09:15:37;;;;;;;49.23;18.70;;;-1.00;99.90;;;;;;4445231;28;658936;-62
2020/12/09 09:18:24;;;;;;;43.50;18.37;;;-1.00;99.90;;;;;;4451985;28;660050;-61
2020/12/09 09:21:11;;;;;;;54.13;18.30;;;-1.00;99.90;;;;;;4461377;28;658504;-60
2020/12/09 09:23:58;;;;;;;47.13;18.40;;;-1.00;99.90;;;;;;4433223;28;660595;-61
2020/12/09 09:26:45;;;;;;;46.63;17.00;;;-1.10;99.90;;;;;;4451913;28;658860;-60
2020/12/09 09:29:35;;;;;;;52.40;16.80;;;-0.90;99.90;;;;;;4434695;28;658700;-63
2020/12/09 09:32:22;;;;;;;56.93;19.77;;;-0.90;99.90;;;;;;4437813;28;658894;-61
2020/12/09 09:35:09;;;;;;;46.37;16.27;;;-0.90;99.90;;;;;;4457158;28;659907;-61
2020/12/09 09:37:56;;;;;;;57.60;18.03;;;-0.90;99.90;;;;;;4456471;28;658684;-61
2020/12/09 09:40:43;;;;;;;60.30;19.60;;;-0.80;99.90;;;;;;4456540;28;659953;-61
2020/12/09 09:43:30;;;;;;;56.80;21.52;;;-0.80;99.90;;;;;;4453884;28;659417;-60
2020/12/09 09:46:22;;;;;;;54.85;20.30;;;-0.80;99.90;;;;;;4434449;28;658497;-60
2020/12/09 09:49:09;;;;;;;57.37;20.07;;;-0.70;99.90;;;;;;4427435;28;660195;-61
2020/12/09 09:51:57;;;;;;;46.87;17.00;;;-0.60;99.90;;;;;;4434807;28;658429;-61
2020/12/09 09:54:43;;;;;;;53.77;18.23;;;-0.50;99.90;;;;;;4459548;28;659809;-60
2020/12/09 09:57:33;;;;;;;50.80;18.53;;;-0.50;99.90;;;;;;4457715;28;658182;-60
2020/12/09 10:00:20;;;;;;;62.70;21.40;;;-0.50;99.90;;;;;;4437951;28;659221;-60
2020/12/09 10:03:08;;;;;;;58.40;20.33;;;-0.50;99.90;;;;;;4431753;28;658482;-62
2020/12/09 10:05:55;;;;;;;58.77;19.47;;;-0.40;99.90;;;;;;4461459;28;659500;-60
2020/12/09 10:08:42;;;;;;;53.07;17.97;;;-0.40;99.90;;;;;;4440390;28;658433;-60
2020/12/09 10:11:30;;;;;;;55.50;18.87;;;-0.40;99.90;;;;;;4458249;28;660051;-60
2020/12/09 10:14:17;;;;;;;52.17;17.27;;;-0.50;99.90;;;;;;4431081;28;659364;-61
2020/12/09 10:17:05;;;;;;;54.10;19.80;;;-0.50;99.90;;;;;;4452110;28;660460;-61
2020/12/09 10:19:53;;;;;;;57.77;20.83;;;-0.50;99.90;;;;;;4435646;28;658816;-61
2020/12/09 10:22:40;;;;;;;51.60;19.50;;;-0.50;99.90;;;;;;4456829;28;659586;-60
2020/12/09 10:25:27;;;;;;;45.67;17.10;;;-0.50;99.90;;;;;;4433669;28;658999;-62
2020/12/09 10:28:14;;;;;;;54.37;18.63;;;-0.40;99.90;;;;;;4462909;28;660450;-61
2020/12/09 10:31:01;;;;;;;52.53;17.00;;;-0.60;99.90;;;;;;4452772;28;658711;-62
2020/12/09 10:33:49;;;;;;;55.45;19.63;;;-0.60;99.90;;;;;;4464381;28;658705;-60
2020/12/09 10:36:37;;;;;;;57.97;20.63;;;-0.50;99.90;;;;;;4452268;28;659438;-60
2020/12/09 10:39:24;;;;;;;62.97;22.53;;;-0.50;99.90;;;;;;4429380;28;659814;-60
2020/12/09 10:42:11;;;;;;;64.20;20.13;;;-0.50;99.90;;;;;;4456090;28;658724;-62
2020/12/09 10:44:58;;;;;;;44.30;16.05;;;-0.50;99.90;;;;;;4463243;28;658759;-61
2020/12/09 10:47:45;;;;;;;64.17;22.80;;;-0.40;99.90;;;;;;4454476;28;658203;-61
2020/12/09 10:50:32;;;;;;;74.23;25.50;;;-0.40;99.90;;;;;;4441071;28;658524;-61
2020/12/09 10:53:20;;;;;;;61.10;21.83;;;-0.40;99.90;;;;;;4463756;28;659185;-60
2020/12/09 10:56:07;;;;;;;73.07;25.93;;;-0.40;99.90;;;;;;4434542;28;658622;-61
2020/12/09 10:58:55;;;;;;;69.03;24.27;;;-0.40;99.90;;;;;;4462140;28;660342;-60
2020/12/09 11:01:42;;;;;;;69.47;23.50;;;-0.40;99.90;;;;;;4445028;28;660214;-62
2020/12/09 11:04:29;;;;;;;69.47;25.83;;;-0.40;99.90;;;;;;4456718;28;660882;-60
2020/12/09 11:07:17;;;;;;;59.07;21.90;;;-0.50;99.90;;;;;;4460691;28;658740;-61
2020/12/09 11:10:05;;;;;;;64.47;24.70;;;-0.50;99.90;;;;;;4457958;28;659880;-60
2020/12/09 11:12:52;;;;;;;85.70;29.03;;;-0.50;99.90;;;;;;4441560;28;658454;-62
2020/12/09 11:15:39;;;;;;;74.13;25.07;;;-0.50;99.90;;;;;;4463570;28;659422;-60
2020/12/09 11:18:26;;;;;;;75.27;27.43;;;-0.60;99.90;;;;;;4460036;28;659663;-61
2020/12/09 11:21:16;;;;;;;53.10;17.87;;;-0.60;99.90;;;;;;4437510;27;660064;-62
2020/12/09 11:24:03;;;;;;;57.17;19.95;;;-0.50;99.90;;;;;;4437825;28;659089;-61
2020/12/09 11:26:51;;;;;;;53.50;21.20;;;-0.40;99.90;;;;;;4466059;28;658729;-61
2020/12/09 11:29:39;;;;;;;57.30;20.87;;;-0.30;99.90;;;;;;4438014;28;658954;-60
2020/12/09 11:32:32;;;;;;;58.17;19.40;;;-0.40;99.90;;;;;;4446591;28;660105;-62
2020/12/09 11:35:19;;;;;;;48.33;18.70;;;-0.40;99.90;;;;;;4431157;28;659186;-61
2020/12/09 11:38:06;;;;;;;51.83;19.73;;;-0.40;99.90;;;;;;4458414;28;659804;-60
2020/12/09 11:40:53;;;;;;;47.93;15.93;;;-0.40;99.90;;;;;;4445285;28;658614;-60
2020/12/09 11:43:44;;;;;;;48.67;17.40;;;-0.40;99.90;;;;;;4456807;28;660021;-60
2020/12/09 11:46:31;;;;;;;47.13;18.30;;;-0.30;99.90;;;;;;4418662;28;659343;-60
2020/12/09 11:49:18;;;;;;;55.47;19.70;;;-0.40;99.90;;;;;;4431031;28;659412;-62
2020/12/09 11:52:05;;;;;;;53.23;19.43;;;-0.50;99.90;;;;;;4449455;28;659599;-61
2020/12/09 11:54:52;;;;;;;51.50;16.30;;;-0.40;99.90;;;;;;4430803;28;658568;-61
2020/12/09 11:57:39;;;;;;;57.17;19.03;;;-0.50;99.90;;;;;;4453503;28;659441;-60
2020/12/09 12:00:28;;;;;;;52.08;17.83;;;-0.40;99.90;;;;;;4430578;28;659151;-61
2020/12/09 12:03:15;;;;;;;51.57;16.90;;;-0.40;99.90;;;;;;4450203;28;658769;-60
2020/12/09 12:06:02;;;;;;;49.83;19.00;;;-0.40;99.90;;;;;;4415186;28;658613;-60
2020/12/09 12:08:50;;;;;;;37.33;14.50;;;-0.30;99.90;;;;;;4444739;28;658694;-60
2020/12/09 12:11:37;;;;;;;50.73;19.43;;;-0.30;99.90;;;;;;4425386;28;658647;-60
2020/12/09 12:14:25;;;;;;;53.50;18.43;;;-0.40;99.90;;;;;;4451432;28;659998;-60
2020/12/09 12:17:13;;;;;;;50.07;20.13;;;-0.50;99.90;;;;;;4422506;28;659363;-61
2020/12/09 12:20:00;;;;;;;43.33;15.93;;;-0.50;99.90;;;;;;4438726;28;659084;-62
2020/12/09 12:22:47;;;;;;;59.27;20.93;;;-0.60;99.90;;;;;;4428447;28;658514;-61
2020/12/09 12:25:34;;;;;;;51.47;19.47;;;-0.70;99.90;;;;;;4440037;28;659966;-61
2020/12/09 12:28:21;;;;;;;55.80;19.90;;;-0.60;99.90;;;;;;4432834;28;658657;-63
2020/12/09 12:31:10;;;;;;;43.60;17.87;;;-0.60;99.90;;;;;;4448277;28;658245;-60
2020/12/09 12:33:58;;;;;;;57.87;20.97;;;-0.60;99.90;;;;;;4427085;28;658871;-61
2020/12/09 12:36:45;;;;;;;63.50;23.73;;;-0.60;99.90;;;;;;4445442;28;659786;-60
2020/12/09 12:39:32;;;;;;;62.77;21.83;;;-0.70;99.90;;;;;;4422218;28;660007;-60
2020/12/09 12:42:19;;;;;;;47.22;17.35;;;-0.70;99.90;;;;;;4444422;28;659577;-60
2020/12/09 12:45:06;;;;;;;55.73;20.30;;;-0.70;99.90;;;;;;4431708;28;659198;-62
2020/12/09 12:47:53;;;;;;;68.03;24.33;;;-0.70;99.90;;;;;;4459957;28;658328;-61
2020/12/09 12:50:41;;;;;;;55.22;19.40;;;-0.80;99.90;;;;;;4458223;28;659334;-60
2020/12/09 12:53:28;;;;;;;67.80;24.07;;;-0.80;99.90;;;;;;4430188;28;659268;-61
2020/12/09 12:56:16;;;;;;;42.00;16.88;;;-0.90;99.90;;;;;;4454869;28;658759;-61
2020/12/09 12:59:04;;;;;;;59.87;21.97;;;-0.80;99.90;;;;;;4435131;28;658972;-61
2020/12/09 13:01:52;;;;;;;50.30;17.67;;;-0.70;99.90;;;;;;4460547;28;659319;-60
2020/12/09 13:04:39;;;;;;;64.30;22.33;;;-0.80;99.90;;;;;;4431109;28;659843;-60
2020/12/09 13:07:27;;;;;;;59.77;21.53;;;-0.90;99.90;;;;;;4462688;28;659335;-61
2020/12/09 13:10:14;;;;;;;59.67;21.43;;;-1.00;99.90;;;;;;4432833;28;660600;-60
2020/12/09 13:13:01;;;;;;;58.03;19.97;;;-1.10;99.90;;;;;;4452872;28;658224;-60
2020/12/09 13:15:48;;;;;;;58.83;19.83;;;-1.10;99.90;;;;;;4441319;28;658548;-61
2020/12/09 13:18:35;;;;;;;67.23;24.07;;;-1.10;99.90;;;;;;4459010;28;660726;-61
2020/12/09 13:21:22;;;;;;;59.87;22.93;;;-1.20;99.90;;;;;;4440801;27;658814;-61
2020/12/09 13:24:10;;;;;;;55.17;21.80;;;-1.10;99.90;;;;;;4459346;28;659753;-60
2020/12/09 13:26:57;;;;;;;53.23;19.00;;;-1.20;99.90;;;;;;4431532;28;658502;-62
2020/12/09 13:29:44;;;;;;;52.70;18.35;;;-1.10;99.90;;;;;;4459213;28;660331;-61
2020/12/09 13:32:31;;;;;;;51.43;18.30;;;-1.20;99.90;;;;;;4437446;28;658584;-62
2020/12/09 13:35:18;;;;;;;58.72;22.23;;;-1.30;99.90;;;;;;4464078;28;658863;-60
2020/12/09 13:38:06;;;;;;;57.22;19.40;;;-1.50;99.90;;;;;;4458433;28;659881;-60
2020/12/09 13:40:54;;;;;;;58.97;20.60;;;-1.50;99.90;;;;;;4433273;28;659444;-61
2020/12/09 13:43:41;;;;;;;70.97;22.23;;;-1.50;99.90;;;;;;4456563;28;658357;-60
2020/12/09 13:46:28;;;;;;;80.33;27.67;;;-1.50;99.90;;;;;;4429623;28;658420;-60
2020/12/09 13:49:15;;;;;;;76.90;24.87;;;-1.50;99.90;;;;;;4449320;28;659645;-60
2020/12/09 13:52:02;;;;;;;63.93;21.20;;;-1.50;99.90;;;;;;4439744;28;658967;-61
2020/12/09 13:54:49;;;;;;;81.23;24.57;;;-1.40;99.90;;;;;;4458937;28;659696;-61
2020/12/09 13:57:37;;;;;;;45.57;16.63;;;-1.50;99.90;;;;;;4452379;28;658874;-62
2020/12/09 14:00:24;;;;;;;52.23;18.30;;;-1.50;99.90;;;;;;4450352;28;659624;-60
2020/12/09 14:03:11;;;;;;;70.07;21.77;;;-1.50;99.90;;;;;;4433018;28;658878;-61
2020/12/09 14:06:00;;;;;;;82.87;23.53;;;-1.40;99.90;;;;;;4453646;28;658932;-60
2020/12/09 14:08:52;;;;;;;65.13;21.40;;;-1.60;99.90;;;;;;4409836;28;660348;-61
2020/12/09 14:11:42;;;;;;;51.13;17.53;;;-1.60;99.90;;;;;;4367811;28;659577;-60
2020/12/09 14:14:30;;;;;;;68.83;22.57;;;-1.60;99.90;;;;;;4412121;28;659878;-60
2020/12/09 14:17:19;;;;;;;70.60;25.47;;;-1.60;99.90;;;;;;4441439;28;660011;-61
2020/12/09 14:20:09;;;;;;;111.70;31.93;;;-1.60;99.90;;;;;;4436158;28;659654;-62
2020/12/09 14:22:56;;;;;;;78.13;25.52;;;-1.60;99.90;;;;;;4437348;28;659759;-62